createdAt,value
2017-11-17T00:02:23.147Z,27.90
2017-11-17T00:04:50.789Z,28.07
2017-11-17T00:07:18.355Z,30.47
2017-11-17T00:09:45.969Z,29.90
2017-11-17T00:12:14.411Z,25.00
2017-11-17T00:14:41.984Z,23.17
2017-11-17T00:17:10.681Z,28.07
2017-11-17T00:19:38.319Z,24.23
2017-11-17T00:22:05.862Z,25.63
2017-11-17T00:24:33.472Z,27.03
2017-11-17T00:27:01.178Z,26.57
2017-11-17T00:29:28.766Z,25.50
2017-11-17T00:31:57.016Z,26.50
2017-11-17T00:34:24.643Z,22.37
2017-11-17T00:36:52.243Z,28.10
2017-11-17T00:39:19.856Z,29.73
2017-11-17T00:41:48.275Z,24.10
2017-11-17T00:44:15.852Z,23.60
2017-11-17T00:46:45.817Z,26.43
2017-11-17T00:49:13.671Z,27.60
2017-11-17T00:51:42.049Z,27.10
2017-11-17T00:54:13.034Z,28.20
2017-11-17T00:56:42.597Z,25.17
2017-11-17T00:59:10.189Z,27.70
2017-11-17T01:01:37.817Z,22.83
2017-11-17T01:04:06.844Z,28.90
2017-11-17T01:06:34.448Z,29.60
2017-11-17T01:09:03.498Z,25.57
2017-11-17T01:11:33.812Z,26.73
2017-11-17T01:14:02.848Z,29.00
2017-11-17T01:16:32.150Z,27.87
2017-11-17T01:19:01.868Z,22.43
2017-11-17T01:21:29.945Z,21.87
2017-11-17T01:23:57.544Z,18.63
2017-11-17T01:26:27.334Z,21.73
2017-11-17T01:28:55.689Z,22.10
2017-11-17T01:31:24.993Z,22.50
2017-11-17T01:33:53.597Z,21.13
2017-11-17T01:36:22.743Z,19.37
2017-11-17T01:38:51.076Z,22.87
2017-11-17T01:41:18.685Z,24.77
2017-11-17T01:43:46.217Z,21.13
2017-11-17T01:46:15.033Z,21.73
2017-11-17T01:48:44.169Z,22.17
2017-11-17T01:51:11.758Z,22.00
2017-11-17T01:53:39.459Z,29.20
2017-11-17T01:56:08.763Z,23.50
2017-11-17T01:58:37.229Z,20.07
2017-11-17T02:01:04.825Z,20.83
2017-11-17T02:03:33.318Z,17.63
2017-11-17T02:06:00.880Z,20.33
2017-11-17T02:08:28.885Z,24.27
2017-11-17T02:10:56.461Z,25.97
2017-11-17T02:13:24.845Z,23.13
2017-11-17T02:15:52.501Z,22.07
2017-11-17T02:18:20.029Z,24.80
2017-11-17T02:20:47.641Z,26.90
2017-11-17T02:23:15.193Z,24.07
2017-11-17T02:25:43.564Z,23.70
2017-11-17T02:28:11.126Z,24.43
2017-11-17T02:30:38.771Z,22.43
2017-11-17T02:33:06.308Z,27.83
2017-11-17T02:35:34.647Z,27.03
2017-11-17T02:38:02.188Z,25.07
2017-11-17T02:40:29.757Z,22.60
2017-11-17T02:42:57.302Z,26.73
2017-11-17T02:45:24.868Z,23.13
2017-11-17T02:47:52.400Z,23.17
2017-11-17T02:50:20.370Z,29.10
2017-11-17T02:52:48.926Z,26.57
2017-11-17T02:55:16.580Z,25.70
2017-11-17T02:57:44.175Z,25.37
2017-11-17T03:00:12.700Z,22.67
2017-11-17T03:02:40.329Z,25.43
2017-11-17T03:05:09.958Z,29.30
2017-11-17T03:07:37.512Z,26.03
2017-11-17T03:10:05.886Z,31.13
2017-11-17T03:12:35.335Z,25.47
2017-11-17T03:15:02.918Z,27.83
2017-11-17T03:17:30.465Z,26.97
2017-11-17T03:19:58.884Z,21.63
2017-11-17T03:22:29.344Z,27.40
2017-11-17T03:24:57.682Z,28.83
2017-11-17T03:27:25.940Z,27.53
2017-11-17T03:29:54.430Z,25.93
2017-11-17T03:32:22.937Z,25.60
2017-11-17T03:34:50.510Z,23.63
2017-11-17T03:37:18.935Z,24.20
2017-11-17T03:39:46.580Z,25.77
2017-11-17T03:42:14.246Z,26.10
2017-11-17T03:44:41.910Z,29.23
2017-11-17T03:47:11.502Z,30.43
2017-11-17T03:49:39.269Z,24.70
2017-11-17T03:52:06.996Z,29.27
2017-11-17T03:54:34.657Z,27.43
2017-11-17T03:57:03.111Z,24.07
2017-11-17T03:59:30.705Z,25.90
2017-11-17T04:01:58.318Z,28.77
2017-11-17T04:04:25.901Z,24.20
2017-11-17T04:06:54.898Z,25.17
2017-11-17T04:09:25.092Z,29.00
2017-11-17T04:11:54.160Z,30.00
2017-11-17T04:14:22.513Z,26.00
2017-11-17T04:16:52.568Z,28.43
2017-11-17T04:19:21.105Z,26.37
2017-11-17T04:21:49.665Z,32.60
2017-11-17T04:24:21.307Z,28.47
2017-11-17T04:26:50.770Z,33.37
2017-11-17T04:29:18.389Z,34.77
2017-11-17T04:31:47.099Z,29.23
2017-11-17T04:34:16.266Z,27.13
2017-11-17T04:36:46.013Z,29.83
2017-11-17T04:39:14.432Z,31.03
2017-11-17T04:41:42.822Z,32.97
2017-11-17T04:44:11.264Z,31.40
2017-11-17T04:46:38.902Z,31.50
2017-11-17T04:49:06.526Z,32.17
2017-11-17T04:51:35.856Z,27.97
2017-11-17T04:54:05.099Z,26.97
2017-11-17T04:56:32.644Z,29.90
2017-11-17T04:59:00.992Z,28.87
2017-11-17T05:01:28.523Z,30.60
2017-11-17T05:03:56.948Z,29.37
2017-11-17T05:06:27.841Z,30.87
2017-11-17T05:08:55.413Z,31.27
2017-11-17T05:11:22.949Z,43.60
2017-11-17T05:13:50.516Z,34.47
2017-11-17T05:16:18.926Z,36.20
2017-11-17T05:18:47.938Z,33.47
2017-11-17T05:21:15.541Z,31.43
2017-11-17T05:23:43.174Z,28.37
2017-11-17T05:26:11.643Z,30.03
2017-11-17T05:28:40.924Z,28.50
2017-11-17T05:31:09.999Z,27.47
2017-11-17T05:33:37.697Z,30.03
2017-11-17T05:36:05.257Z,33.43
2017-11-17T05:38:34.498Z,31.63
2017-11-17T05:41:02.053Z,29.10
2017-11-17T05:43:29.633Z,31.20
2017-11-17T05:45:58.082Z,33.13
2017-11-17T05:48:27.059Z,37.57
2017-11-17T05:50:55.450Z,31.73
2017-11-17T05:53:24.703Z,30.23
2017-11-17T05:55:52.249Z,30.17
2017-11-17T05:58:20.645Z,32.70
2017-11-17T06:00:48.234Z,27.97
2017-11-17T06:03:15.869Z,32.80
2017-11-17T06:05:44.537Z,27.80
2017-11-17T06:08:12.191Z,29.40
2017-11-17T06:10:41.648Z,30.20
2017-11-17T06:13:10.100Z,31.63
2017-11-17T06:15:38.730Z,27.63
2017-11-17T06:18:06.709Z,34.17
2017-11-17T06:20:34.279Z,36.17
2017-11-17T06:23:01.833Z,29.37
2017-11-17T06:25:31.918Z,28.23
2017-11-17T06:28:00.258Z,28.60
2017-11-17T06:30:29.040Z,35.33
2017-11-17T06:32:56.616Z,28.50
2017-11-17T06:35:24.977Z,27.00
2017-11-17T06:37:53.321Z,30.10
2017-11-17T06:40:20.868Z,28.87
2017-11-17T06:42:48.446Z,29.07
2017-11-17T06:45:16.185Z,27.83
2017-11-17T06:47:46.211Z,26.63
2017-11-17T06:50:14.524Z,32.30
2017-11-17T06:52:43.511Z,28.60
2017-11-17T06:55:12.569Z,27.77
2017-11-17T06:57:40.228Z,28.10
2017-11-17T07:00:08.026Z,30.00
2017-11-17T07:02:36.481Z,24.50
2017-11-17T07:05:04.072Z,30.53
2017-11-17T07:07:31.636Z,33.43
2017-11-17T07:09:59.942Z,21.57
2017-11-17T07:12:27.506Z,26.37
2017-11-17T07:14:55.041Z,24.90
2017-11-17T07:17:22.639Z,25.00
2017-11-17T07:19:51.772Z,29.27
2017-11-17T07:22:19.341Z,31.67
2017-11-17T07:24:46.918Z,30.77
2017-11-17T07:27:15.099Z,27.03
2017-11-17T07:29:42.681Z,26.40
2017-11-17T07:32:10.391Z,25.90
2017-11-17T07:34:39.018Z,32.47
2017-11-17T07:37:07.566Z,33.80
2017-11-17T07:39:35.129Z,28.97
2017-11-17T07:42:02.691Z,29.50
2017-11-17T07:44:30.233Z,25.07
2017-11-17T07:46:57.796Z,26.10
2017-11-17T07:49:25.340Z,24.33
2017-11-17T07:51:52.913Z,23.47
2017-11-17T07:54:20.894Z,27.53
2017-11-17T07:56:48.463Z,29.10
2017-11-17T07:59:16.043Z,24.47
2017-11-17T08:01:43.644Z,27.07
2017-11-17T08:04:11.192Z,26.63
2017-11-17T08:06:38.806Z,25.00
2017-11-17T08:09:06.345Z,28.07
2017-11-17T08:11:33.924Z,23.07
2017-11-17T08:14:01.460Z,26.67
2017-11-17T08:16:29.025Z,25.57
2017-11-17T08:18:57.191Z,26.57
2017-11-17T08:21:25.555Z,23.10
2017-11-17T08:23:53.867Z,23.30
2017-11-17T08:26:21.487Z,24.80
2017-11-17T08:28:49.037Z,28.73
2017-11-17T08:31:17.517Z,29.13
2017-11-17T08:33:45.120Z,27.67
2017-11-17T08:36:12.710Z,22.60
2017-11-17T08:38:41.030Z,24.00
2017-11-17T08:41:11.357Z,20.10
2017-11-17T08:43:39.882Z,23.53
2017-11-17T08:46:07.485Z,24.60
2017-11-17T08:48:35.261Z,23.97
2017-11-17T08:51:02.793Z,28.10
2017-11-17T08:53:30.621Z,26.10
2017-11-17T08:55:58.212Z,24.93
2017-11-17T08:58:26.589Z,25.70
2017-11-17T09:00:54.256Z,27.73
2017-11-17T09:03:21.844Z,25.20
2017-11-17T09:05:49.385Z,26.10
2017-11-17T09:08:17.765Z,24.20
2017-11-17T09:10:46.089Z,23.47
2017-11-17T09:13:13.693Z,30.07
2017-11-17T09:15:41.264Z,24.93
2017-11-17T09:18:10.293Z,30.27
2017-11-17T09:20:39.657Z,25.70
2017-11-17T09:23:07.260Z,26.00
2017-11-17T09:28:38.729Z,34.17
2017-11-17T09:31:07.054Z,31.80
2017-11-17T09:33:34.712Z,32.87
2017-11-17T09:36:03.048Z,35.07
2017-11-17T09:38:30.596Z,38.00
2017-11-17T09:40:58.165Z,37.30
2017-11-17T09:43:25.739Z,33.73
2017-11-17T09:45:53.342Z,34.47
2017-11-17T09:48:21.018Z,33.43
2017-11-17T09:50:49.229Z,33.00
2017-11-17T09:53:16.952Z,33.37
2017-11-17T09:55:44.502Z,31.73
2017-11-17T09:58:12.862Z,33.13
2017-11-17T10:00:40.411Z,34.30
2017-11-17T10:03:08.072Z,38.97
2017-11-17T10:05:35.613Z,33.20
2017-11-17T10:08:03.961Z,32.40
2017-11-17T10:10:31.503Z,34.67
2017-11-17T10:12:59.083Z,34.60
2017-11-17T10:15:26.629Z,33.23
2017-11-17T10:17:54.990Z,38.87
2017-11-17T10:20:22.529Z,29.10
2017-11-17T10:22:50.137Z,30.23
2017-11-17T10:25:17.733Z,39.70
2017-11-17T10:27:45.336Z,39.57
2017-11-17T10:30:12.881Z,36.20
2017-11-17T10:32:41.224Z,37.17
2017-11-17T10:35:08.792Z,36.77
2017-11-17T10:37:36.365Z,37.63
2017-11-17T10:40:03.921Z,35.20
2017-11-17T10:42:32.441Z,36.17
2017-11-17T10:45:00.032Z,39.57
2017-11-17T10:47:27.645Z,34.40
2017-11-17T10:49:55.262Z,35.80
2017-11-17T10:52:23.798Z,36.90
2017-11-17T10:54:52.110Z,34.63
2017-11-17T10:57:20.456Z,36.07
2017-11-17T10:59:48.027Z,35.50
2017-11-17T11:02:15.766Z,36.83
2017-11-17T11:04:43.316Z,35.17
2017-11-17T11:07:11.758Z,29.53
2017-11-17T11:09:39.577Z,37.50
2017-11-17T11:12:07.196Z,32.00
2017-11-17T11:14:34.807Z,38.27
2017-11-17T11:17:03.174Z,32.87
2017-11-17T11:19:30.800Z,33.10
2017-11-17T11:21:59.323Z,32.93
2017-11-17T11:24:26.895Z,33.60
2017-11-17T11:26:54.644Z,34.77
2017-11-17T11:29:23.069Z,33.90
2017-11-17T11:31:50.653Z,37.50
2017-11-17T11:34:18.200Z,38.73
2017-11-17T11:36:45.870Z,41.27
2017-11-17T11:39:13.469Z,40.80
2017-11-17T11:41:41.863Z,38.07
2017-11-17T11:44:10.037Z,35.63
2017-11-17T11:46:37.613Z,34.40
2017-11-17T11:49:05.190Z,39.77
2017-11-17T11:51:32.781Z,44.13
2017-11-17T11:54:00.332Z,35.33
2017-11-17T11:56:27.913Z,41.87
2017-11-17T11:58:55.461Z,41.50
2017-11-17T12:01:23.809Z,38.63
2017-11-17T12:03:51.654Z,37.67
2017-11-17T12:06:19.327Z,40.43
2017-11-17T12:08:46.889Z,38.40
2017-11-17T12:11:14.471Z,37.10
2017-11-17T12:13:42.034Z,33.57
2017-11-17T12:16:09.717Z,34.77
2017-11-17T12:18:37.384Z,35.00
2017-11-17T12:21:06.924Z,37.83
2017-11-17T12:23:34.620Z,33.70
2017-11-17T12:26:02.203Z,34.47
2017-11-17T12:28:30.418Z,34.00
2017-11-17T12:30:58.167Z,38.90
2017-11-17T12:33:25.760Z,35.37
2017-11-17T12:35:53.313Z,37.87
2017-11-17T12:38:21.772Z,36.17
2017-11-17T12:40:49.330Z,36.97
2017-11-17T12:43:16.904Z,35.63
2017-11-17T12:45:44.468Z,36.37
2017-11-17T12:48:12.810Z,36.50
2017-11-17T12:50:40.361Z,35.77
2017-11-17T12:53:07.930Z,31.00
2017-11-17T12:55:35.500Z,32.40
2017-11-17T12:58:03.079Z,33.30
2017-11-17T13:00:30.630Z,34.90
2017-11-17T13:02:58.248Z,30.07
2017-11-17T13:05:26.344Z,32.70
2017-11-17T13:07:54.837Z,33.30
2017-11-17T13:10:22.413Z,33.37
2017-11-17T13:12:50.005Z,26.70
2017-11-17T13:15:17.542Z,29.10
2017-11-17T13:17:45.117Z,28.77
2017-11-17T13:20:13.432Z,37.87
2017-11-17T13:22:41.012Z,33.00
2017-11-17T13:25:08.558Z,39.10
2017-11-17T13:27:36.121Z,34.67
2017-11-17T13:30:03.654Z,32.80
2017-11-17T13:32:32.018Z,37.10
2017-11-17T13:34:59.574Z,34.90
2017-11-17T13:37:27.157Z,32.30
2017-11-17T13:39:54.685Z,32.93
2017-11-17T13:42:22.259Z,32.77
2017-11-17T13:44:49.810Z,34.93
2017-11-17T13:47:18.227Z,33.80
2017-11-17T13:49:45.777Z,40.13
2017-11-17T13:52:14.191Z,32.10
2017-11-17T13:54:41.741Z,35.67
2017-11-17T13:57:10.077Z,35.27
2017-11-17T13:59:37.613Z,34.33
2017-11-17T14:02:05.187Z,36.77
2017-11-17T14:04:32.745Z,35.07
2017-11-17T14:07:01.628Z,40.77
2017-11-17T14:09:29.937Z,49.80
2017-11-17T14:11:58.289Z,34.97
2017-11-17T14:14:25.835Z,39.23
2017-11-17T14:16:53.409Z,37.60
2017-11-17T14:19:20.969Z,36.83
2017-11-17T14:21:48.590Z,37.47
2017-11-17T14:24:16.133Z,36.37
2017-11-17T14:26:43.731Z,52.30
2017-11-17T14:29:11.282Z,39.73
2017-11-17T14:31:38.851Z,40.10
2017-11-17T14:34:06.398Z,47.93
2017-11-17T14:36:33.989Z,41.47
2017-11-17T14:39:01.528Z,39.70
2017-11-17T14:41:29.163Z,43.67
2017-11-17T14:43:56.705Z,40.90
2017-11-17T14:46:24.410Z,42.17
2017-11-17T14:48:51.950Z,42.40
2017-11-17T14:51:19.524Z,38.57
2017-11-17T14:53:47.097Z,39.30
2017-11-17T14:56:14.697Z,39.60
2017-11-17T14:58:42.251Z,37.47
2017-11-17T15:01:09.812Z,42.60
2017-11-17T15:03:38.185Z,38.17
2017-11-17T15:06:06.495Z,35.77
2017-11-17T15:08:34.095Z,39.17
2017-11-17T15:11:02.281Z,41.10
2017-11-17T15:13:29.837Z,39.87
2017-11-17T15:15:58.074Z,38.90
2017-11-17T15:18:25.653Z,41.47
2017-11-17T15:20:53.314Z,35.10
2017-11-17T15:23:21.197Z,37.80
2017-11-17T15:25:49.859Z,36.07
2017-11-17T15:28:17.439Z,37.83
2017-11-17T15:30:45.038Z,38.50
2017-11-17T15:33:12.929Z,38.20
2017-11-17T15:35:40.495Z,38.87
2017-11-17T15:38:08.037Z,44.20
2017-11-17T15:40:35.640Z,46.13
2017-11-17T15:43:03.169Z,48.13
2017-11-17T15:45:30.746Z,50.33
2017-11-17T15:47:58.294Z,50.87
2017-11-17T15:50:26.657Z,46.23
2017-11-17T15:52:54.197Z,47.50
2017-11-17T15:55:21.794Z,53.40
2017-11-17T15:57:49.363Z,48.43
2017-11-17T16:00:16.950Z,44.60
2017-11-17T16:02:44.518Z,44.33
2017-11-17T16:05:12.124Z,48.27
2017-11-17T16:07:40.432Z,52.03
2017-11-17T16:10:09.137Z,47.07
2017-11-17T16:12:36.708Z,47.80
2017-11-17T16:15:04.304Z,44.63
2017-11-17T16:17:31.852Z,54.17
2017-11-17T16:19:59.442Z,47.77
2017-11-17T16:22:26.989Z,51.33
2017-11-17T16:24:55.324Z,49.83
2017-11-17T16:27:22.873Z,47.93
2017-11-17T16:29:50.538Z,48.60
2017-11-17T16:32:18.128Z,48.67
2017-11-17T16:34:46.039Z,48.53
2017-11-17T16:37:14.254Z,47.20
2017-11-17T16:39:41.854Z,59.17
2017-11-17T16:42:11.335Z,49.20
2017-11-17T16:44:38.908Z,55.13
2017-11-17T16:47:06.457Z,55.97
2017-11-17T16:49:34.708Z,58.60
2017-11-17T16:52:02.253Z,53.07
2017-11-17T16:54:30.604Z,56.57
2017-11-17T16:56:58.148Z,60.30
2017-11-17T16:59:26.498Z,67.07
2017-11-17T17:01:54.133Z,58.60
2017-11-17T17:04:21.690Z,59.17
2017-11-17T17:06:49.277Z,60.90
2017-11-17T17:09:17.394Z,62.77
2017-11-17T17:11:44.989Z,66.23
2017-11-17T17:14:13.395Z,74.93
2017-11-17T17:16:41.816Z,61.67
2017-11-17T17:19:09.375Z,59.37
2017-11-17T17:21:37.885Z,57.97
2017-11-17T17:24:05.430Z,58.20
2017-11-17T17:26:33.851Z,59.27
2017-11-17T17:29:02.389Z,60.80
2017-11-17T17:31:31.475Z,69.17
2017-11-17T17:33:59.043Z,57.60
2017-11-17T17:36:26.632Z,56.90
2017-11-17T17:38:54.169Z,57.17
2017-11-17T17:41:21.753Z,62.73
2017-11-17T17:43:49.428Z,57.80
2017-11-17T17:46:17.011Z,62.73
2017-11-17T17:48:44.643Z,66.00
2017-11-17T17:51:12.198Z,64.73
2017-11-17T17:53:40.955Z,58.90
2017-11-17T17:56:09.197Z,54.93
2017-11-17T17:58:37.765Z,70.13
2017-11-17T18:01:05.314Z,66.47
2017-11-17T18:03:32.890Z,58.67
2017-11-17T18:06:00.445Z,61.53
2017-11-17T18:08:28.028Z,70.23
2017-11-17T18:10:55.599Z,73.23
2017-11-17T18:13:23.155Z,69.53
2017-11-17T18:15:51.497Z,62.80
2017-11-17T18:18:19.084Z,67.40
2017-11-17T18:20:47.495Z,70.80
2017-11-17T18:23:16.407Z,71.47
2017-11-17T18:25:44.795Z,63.97
2017-11-17T18:28:12.621Z,77.83
2017-11-17T18:30:40.246Z,65.10
2017-11-17T18:33:08.764Z,68.50
2017-11-17T18:35:36.429Z,78.60
2017-11-17T18:38:04.024Z,72.63
2017-11-17T18:40:31.638Z,78.30
2017-11-17T18:42:59.228Z,73.47
2017-11-17T18:45:26.800Z,71.77
2017-11-17T18:47:54.385Z,82.10
2017-11-17T18:50:21.960Z,72.80
2017-11-17T18:52:50.289Z,75.90
2017-11-17T18:55:17.909Z,74.30
2017-11-17T18:57:45.480Z,88.80
2017-11-17T19:00:13.913Z,80.07
2017-11-17T19:02:41.498Z,93.33
2017-11-17T19:05:09.069Z,91.63
2017-11-17T19:07:36.624Z,83.30
2017-11-17T19:10:04.944Z,90.53
2017-11-17T19:12:32.530Z,87.90
2017-11-17T19:15:00.108Z,81.40
2017-11-17T19:17:29.861Z,86.40
2017-11-17T19:19:58.430Z,92.97
2017-11-17T19:22:25.998Z,88.23
2017-11-17T19:24:53.560Z,97.37
2017-11-17T19:27:21.137Z,95.50
2017-11-17T19:29:48.698Z,88.77
2017-11-17T19:32:16.298Z,100.37
2017-11-17T19:34:44.596Z,85.37
2017-11-17T19:37:12.942Z,101.03
2017-11-17T19:39:40.492Z,87.50
2017-11-17T19:42:08.828Z,78.90
2017-11-17T19:44:37.069Z,94.53
2017-11-17T19:47:05.548Z,93.60
2017-11-17T19:49:33.087Z,99.77
2017-11-17T19:52:00.673Z,111.60
2017-11-17T19:54:28.217Z,92.27
2017-11-17T19:56:55.850Z,112.47
2017-11-17T19:59:23.437Z,121.53
2017-11-17T20:01:51.825Z,104.60
2017-11-17T20:04:20.255Z,117.63
2017-11-17T20:06:47.917Z,116.37
2017-11-17T20:09:16.194Z,114.03
2017-11-17T20:11:44.558Z,103.70
2017-11-17T20:14:12.107Z,99.30
2017-11-17T20:16:39.733Z,115.00
2017-11-17T20:19:08.366Z,114.10
2017-11-17T20:21:35.951Z,112.13
2017-11-17T20:24:03.501Z,109.37
2017-11-17T20:26:31.081Z,143.20
2017-11-17T20:28:58.648Z,121.63
2017-11-17T20:31:26.246Z,115.10
2017-11-17T20:33:53.810Z,115.47
2017-11-17T20:36:21.536Z,92.77
2017-11-17T20:38:49.245Z,104.40
2017-11-17T20:41:16.876Z,99.27
2017-11-17T20:43:44.513Z,102.07
2017-11-17T20:46:12.094Z,107.60
2017-11-17T20:48:39.720Z,98.50
2017-11-17T20:51:08.109Z,98.90
2017-11-17T20:53:37.461Z,86.00
2017-11-17T20:56:05.066Z,91.80
2017-11-17T20:58:32.627Z,83.37
2017-11-17T21:01:00.260Z,99.90
2017-11-17T21:03:28.711Z,75.43
2017-11-17T21:05:56.358Z,77.73
2017-11-17T21:08:23.897Z,81.93
2017-11-17T21:10:52.241Z,73.27
2017-11-17T21:13:19.798Z,81.57
2017-11-17T21:15:47.377Z,77.00
2017-11-17T21:18:15.038Z,83.23
2017-11-17T21:20:44.425Z,72.13
2017-11-17T21:23:12.820Z,84.07
2017-11-17T21:25:40.623Z,72.20
2017-11-17T21:28:10.233Z,74.80
2017-11-17T21:30:38.111Z,75.17
2017-11-17T21:33:07.882Z,87.07
2017-11-17T21:35:36.396Z,92.70
2017-11-17T21:38:03.996Z,88.53
2017-11-17T21:40:31.583Z,80.93
2017-11-17T21:43:00.084Z,91.80
2017-11-17T21:45:28.082Z,74.33
2017-11-17T21:47:55.621Z,74.83
2017-11-17T21:50:23.200Z,82.20
2017-11-17T21:52:50.767Z,75.27
2017-11-17T21:55:18.341Z,67.80
2017-11-17T21:57:46.659Z,73.93
2017-11-17T22:00:14.237Z,68.13
2017-11-17T22:02:41.776Z,60.30
2017-11-17T22:05:09.354Z,68.23
2017-11-17T22:07:36.887Z,64.87
2017-11-17T22:10:04.470Z,68.03
2017-11-17T22:12:33.784Z,70.00
2017-11-17T22:15:01.352Z,67.63
2017-11-17T22:17:28.894Z,61.87
2017-11-17T22:19:57.240Z,68.73
2017-11-17T22:22:25.540Z,63.93
2017-11-17T22:24:54.024Z,71.13
2017-11-17T22:27:23.737Z,57.90
2017-11-17T22:29:53.365Z,63.53
2017-11-17T22:32:21.667Z,74.80
2017-11-17T22:34:50.004Z,69.07
2017-11-17T22:37:17.554Z,61.00
2017-11-17T22:39:45.137Z,61.33
2017-11-17T22:42:14.299Z,67.07
2017-11-17T22:44:42.719Z,62.30
2017-11-17T22:47:11.095Z,56.47
2017-11-17T22:49:39.439Z,63.57
2017-11-17T22:52:07.842Z,58.80
2017-11-17T22:54:36.220Z,53.80
2017-11-17T22:57:04.037Z,57.37
2017-11-17T22:59:32.381Z,54.83
2017-11-17T23:02:00.672Z,66.00
2017-11-17T23:04:28.242Z,58.30
2017-11-17T23:06:55.800Z,61.40
2017-11-17T23:09:23.385Z,61.97
2017-11-17T23:11:50.911Z,62.70
2017-11-17T23:14:19.270Z,58.67
2017-11-17T23:16:46.919Z,62.40
2017-11-17T23:19:14.506Z,57.53
2017-11-17T23:21:42.058Z,52.07
2017-11-17T23:24:09.659Z,58.40
2017-11-17T23:26:37.303Z,54.27
2017-11-17T23:29:05.672Z,51.03
2017-11-17T23:31:34.636Z,43.93
2017-11-17T23:34:02.236Z,45.97
2017-11-17T23:36:30.384Z,45.23
2017-11-17T23:38:57.954Z,44.67
2017-11-17T23:41:25.486Z,46.17
2017-11-17T23:43:53.815Z,40.80
2017-11-17T23:46:21.389Z,41.03
2017-11-17T23:48:48.980Z,36.77
2017-11-17T23:51:16.553Z,43.23
2017-11-17T23:53:44.954Z,37.50
2017-11-17T23:56:12.520Z,29.93
2017-11-17T23:58:40.102Z,30.40
